sensor_id;sensor_type;location;lat;lon;timestamp;temperature;humidity
19220;DHT22;9744;49.364;7.484;2023-05-20T00:02:18;15.20;97.90
19220;DHT22;9744;49.364;7.484;2023-05-20T00:04:46;15.20;97.60
19220;DHT22;9744;49.364;7.484;2023-05-20T00:07:14;15.20;97.80
19220;DHT22;9744;49.364;7.484;2023-05-20T00:09:42;15.10;98.10
19220;DHT22;9744;49.364;7.484;2023-05-20T00:14:58;15.00;98.00
19220;DHT22;9744;49.364;7.484;2023-05-20T00:17:52;15.10;98.20
19220;DHT22;9744;49.364;7.484;2023-05-20T00:20:42;15.10;98.10
19220;DHT22;9744;49.364;7.484;2023-05-20T00:23:49;15.10;98.10
19220;DHT22;9744;49.364;7.484;2023-05-20T00:26:36;15.00;98.70
19220;DHT22;9744;49.364;7.484;2023-05-20T00:29:27;15.10;98.60
19220;DHT22;9744;49.364;7.484;2023-05-20T00:32:20;14.90;99.10
19220;DHT22;9744;49.364;7.484;2023-05-20T00:35:09;14.90;99.30
19220;DHT22;9744;49.364;7.484;2023-05-20T00:38:04;15.00;98.40
19220;DHT22;9744;49.364;7.484;2023-05-20T00:40:59;15.10;99.00
19220;DHT22;9744;49.364;7.484;2023-05-20T00:44:00;14.20;99.10
19220;DHT22;9744;49.364;7.484;2023-05-20T00:51:02;15.00;98.50
19220;DHT22;9744;49.364;7.484;2023-05-20T01:00:49;15.00;98.80
19220;DHT22;9744;49.364;7.484;2023-05-20T01:03:18;15.00;99.00
19220;DHT22;9744;49.364;7.484;2023-05-20T01:05:47;14.90;99.00
19220;DHT22;9744;49.364;7.484;2023-05-20T01:08:15;14.80;99.20
19220;DHT22;9744;49.364;7.484;2023-05-20T01:10:47;14.80;99.10
19220;DHT22;9744;49.364;7.484;2023-05-20T01:13:19;14.90;99.10
19220;DHT22;9744;49.364;7.484;2023-05-20T01:15:49;15.00;99.30
19220;DHT22;9744;49.364;7.484;2023-05-20T01:18:19;14.80;99.50
19220;DHT22;9744;49.364;7.484;2023-05-20T01:20:50;14.80;99.20
19220;DHT22;9744;49.364;7.484;2023-05-20T01:23:21;14.80;99.30
19220;DHT22;9744;49.364;7.484;2023-05-20T01:25:49;14.80;99.70
19220;DHT22;9744;49.364;7.484;2023-05-20T01:28:17;14.90;99.90
19220;DHT22;9744;49.364;7.484;2023-05-20T01:30:50;14.70;99.80
19220;DHT22;9744;49.364;7.484;2023-05-20T01:33:19;14.70;99.50
19220;DHT22;9744;49.364;7.484;2023-05-20T01:35:51;14.70;99.50
19220;DHT22;9744;49.364;7.484;2023-05-20T01:38:24;14.90;99.90
19220;DHT22;9744;49.364;7.484;2023-05-20T01:40:53;14.70;99.90
19220;DHT22;9744;49.364;7.484;2023-05-20T01:47:18;14.70;99.60
19220;DHT22;9744;49.364;7.484;2023-05-20T01:49:46;14.70;99.60
19220;DHT22;9744;49.364;7.484;2023-05-20T01:52:18;14.70;99.90
19220;DHT22;9744;49.364;7.484;2023-05-20T01:54:50;14.70;99.60
19220;DHT22;9744;49.364;7.484;2023-05-20T01:57:22;14.80;99.90
19220;DHT22;9744;49.364;7.484;2023-05-20T01:59:52;14.70;99.90
19220;DHT22;9744;49.364;7.484;2023-05-20T02:02:21;14.60;99.90
19220;DHT22;9744;49.364;7.484;2023-05-20T02:04:50;14.50;99.90
19220;DHT22;9744;49.364;7.484;2023-05-20T02:07:20;14.50;99.90
19220;DHT22;9744;49.364;7.484;2023-05-20T02:13:43;14.50;99.90
19220;DHT22;9744;49.364;7.484;2023-05-20T02:16:11;14.40;99.90
19220;DHT22;9744;49.364;7.484;2023-05-20T02:18:38;14.40;99.90
19220;DHT22;9744;49.364;7.484;2023-05-20T02:21:07;14.50;99.90
19220;DHT22;9744;49.364;7.484;2023-05-20T02:23:35;14.40;99.90
19220;DHT22;9744;49.364;7.484;2023-05-20T02:26:04;14.30;99.90
19220;DHT22;9744;49.364;7.484;2023-05-20T02:28:32;14.30;99.90
19220;DHT22;9744;49.364;7.484;2023-05-20T02:31:07;14.30;99.90
19220;DHT22;9744;49.364;7.484;2023-05-20T02:33:34;14.20;99.90
19220;DHT22;9744;49.364;7.484;2023-05-20T02:36:02;14.20;99.90
19220;DHT22;9744;49.364;7.484;2023-05-20T02:38:33;14.20;99.90
19220;DHT22;9744;49.364;7.484;2023-05-20T02:41:10;14.20;99.90
19220;DHT22;9744;49.364;7.484;2023-05-20T02:43:37;14.20;99.90
19220;DHT22;9744;49.364;7.484;2023-05-20T02:50:01;14.20;99.90
19220;DHT22;9744;49.364;7.484;2023-05-20T02:52:32;14.10;99.90
19220;DHT22;9744;49.364;7.484;2023-05-20T02:55:03;14.10;99.90
19220;DHT22;9744;49.364;7.484;2023-05-20T02:57:31;14.00;99.90
19220;DHT22;9744;49.364;7.484;2023-05-20T03:00:01;14.00;99.90
19220;DHT22;9744;49.364;7.484;2023-05-20T03:02:30;13.80;99.90
19220;DHT22;9744;49.364;7.484;2023-05-20T03:04:58;13.80;99.90
19220;DHT22;9744;49.364;7.484;2023-05-20T03:07:33;13.80;99.90
19220;DHT22;9744;49.364;7.484;2023-05-20T03:10:02;13.70;99.90
19220;DHT22;9744;49.364;7.484;2023-05-20T03:12:32;13.60;99.90
19220;DHT22;9744;49.364;7.484;2023-05-20T03:15:01;13.70;99.90
19220;DHT22;9744;49.364;7.484;2023-05-20T03:17:28;13.80;99.90
19220;DHT22;9744;49.364;7.484;2023-05-20T03:19:58;13.70;99.90
19220;DHT22;9744;49.364;7.484;2023-05-20T03:22:26;13.50;99.90
19220;DHT22;9744;49.364;7.484;2023-05-20T03:24:58;13.60;99.90
19220;DHT22;9744;49.364;7.484;2023-05-20T03:27:28;13.60;99.90
19220;DHT22;9744;49.364;7.484;2023-05-20T03:29:57;13.60;99.90
19220;DHT22;9744;49.364;7.484;2023-05-20T03:32:25;13.40;99.90
19220;DHT22;9744;49.364;7.484;2023-05-20T03:34:54;13.40;99.90
19220;DHT22;9744;49.364;7.484;2023-05-20T03:37:23;13.40;99.90
19220;DHT22;9744;49.364;7.484;2023-05-20T03:39:52;13.20;99.90
19220;DHT22;9744;49.364;7.484;2023-05-20T03:42:21;13.30;99.90
19220;DHT22;9744;49.364;7.484;2023-05-20T03:44:49;13.30;99.90
19220;DHT22;9744;49.364;7.484;2023-05-20T03:47:19;13.40;99.90
19220;DHT22;9744;49.364;7.484;2023-05-20T03:49:46;13.30;99.90
19220;DHT22;9744;49.364;7.484;2023-05-20T03:52:15;13.20;99.90
19220;DHT22;9744;49.364;7.484;2023-05-20T03:58:04;13.30;99.90
19220;DHT22;9744;49.364;7.484;2023-05-20T04:00:33;13.40;99.90
19220;DHT22;9744;49.364;7.484;2023-05-20T04:03:04;13.20;99.90
19220;DHT22;9744;49.364;7.484;2023-05-20T04:05:35;13.20;99.90
19220;DHT22;9744;49.364;7.484;2023-05-20T04:08:05;13.00;99.90
19220;DHT22;9744;49.364;7.484;2023-05-20T04:10:34;12.90;99.90
19220;DHT22;9744;49.364;7.484;2023-05-20T04:13:03;13.00;99.90
19220;DHT22;9744;49.364;7.484;2023-05-20T04:15:34;13.10;99.90
19220;DHT22;9744;49.364;7.484;2023-05-20T04:18:03;13.10;99.90
19220;DHT22;9744;49.364;7.484;2023-05-20T04:20:31;13.10;99.90
19220;DHT22;9744;49.364;7.484;2023-05-20T04:23:01;13.10;99.90
19220;DHT22;9744;49.364;7.484;2023-05-20T04:25:29;13.10;99.90
19220;DHT22;9744;49.364;7.484;2023-05-20T04:28:02;13.00;99.90
19220;DHT22;9744;49.364;7.484;2023-05-20T04:30:32;13.00;99.90
19220;DHT22;9744;49.364;7.484;2023-05-20T04:33:00;12.90;99.90
19220;DHT22;9744;49.364;7.484;2023-05-20T04:35:28;13.00;99.90
19220;DHT22;9744;49.364;7.484;2023-05-20T04:38:03;13.00;99.90
19220;DHT22;9744;49.364;7.484;2023-05-20T04:40:33;13.10;99.90
19220;DHT22;9744;49.364;7.484;2023-05-20T04:43:03;13.10;99.90
19220;DHT22;9744;49.364;7.484;2023-05-20T04:45:32;12.80;99.90
19220;DHT22;9744;49.364;7.484;2023-05-20T04:48:00;12.70;99.90
19220;DHT22;9744;49.364;7.484;2023-05-20T04:54:23;11.40;99.90
19220;DHT22;9744;49.364;7.484;2023-05-20T04:56:52;13.10;99.90
19220;DHT22;9744;49.364;7.484;2023-05-20T04:59:20;13.00;99.90
19220;DHT22;9744;49.364;7.484;2023-05-20T05:01:49;13.10;99.90
19220;DHT22;9744;49.364;7.484;2023-05-20T05:12:26;13.20;99.90
19220;DHT22;9744;49.364;7.484;2023-05-20T05:14:55;13.30;99.90
19220;DHT22;9744;49.364;7.484;2023-05-20T05:17:27;13.60;99.90
19220;DHT22;9744;49.364;7.484;2023-05-20T05:19:57;13.60;99.90
19220;DHT22;9744;49.364;7.484;2023-05-20T05:22:27;13.70;99.90
19220;DHT22;9744;49.364;7.484;2023-05-20T05:24:57;13.70;99.90
19220;DHT22;9744;49.364;7.484;2023-05-20T05:27:25;13.70;99.90
19220;DHT22;9744;49.364;7.484;2023-05-20T05:29:56;13.70;99.90
19220;DHT22;9744;49.364;7.484;2023-05-20T05:32:25;13.80;99.90
19220;DHT22;9744;49.364;7.484;2023-05-20T05:34:53;13.90;99.90
19220;DHT22;9744;49.364;7.484;2023-05-20T05:37:22;13.90;99.90
19220;DHT22;9744;49.364;7.484;2023-05-20T05:39:52;13.80;99.90
19220;DHT22;9744;49.364;7.484;2023-05-20T05:42:20;13.80;99.90
19220;DHT22;9744;49.364;7.484;2023-05-20T05:44:53;13.90;99.90
19220;DHT22;9744;49.364;7.484;2023-05-20T05:47:20;13.90;99.90
19220;DHT22;9744;49.364;7.484;2023-05-20T05:53:52;14.00;99.90
19220;DHT22;9744;49.364;7.484;2023-05-20T06:00:16;14.20;99.90
19220;DHT22;9744;49.364;7.484;2023-05-20T06:02:49;14.20;99.90
19220;DHT22;9744;49.364;7.484;2023-05-20T06:09:24;14.50;99.90
19220;DHT22;9744;49.364;7.484;2023-05-20T06:11:52;14.70;99.90
19220;DHT22;9744;49.364;7.484;2023-05-20T06:14:20;14.70;99.90
19220;DHT22;9744;49.364;7.484;2023-05-20T06:16:50;14.60;99.90
19220;DHT22;9744;49.364;7.484;2023-05-20T06:19:21;15.00;99.90
19220;DHT22;9744;49.364;7.484;2023-05-20T06:21:57;15.10;99.90
19220;DHT22;9744;49.364;7.484;2023-05-20T06:24:34;15.20;99.90
19220;DHT22;9744;49.364;7.484;2023-05-20T06:27:09;15.30;99.90
19220;DHT22;9744;49.364;7.484;2023-05-20T06:29:39;15.50;99.90
19220;DHT22;9744;49.364;7.484;2023-05-20T06:32:11;15.70;99.90
19220;DHT22;9744;49.364;7.484;2023-05-20T06:34:40;15.80;99.90
19220;DHT22;9744;49.364;7.484;2023-05-20T06:37:22;15.70;99.90
19220;DHT22;9744;49.364;7.484;2023-05-20T06:39:53;15.70;99.90
19220;DHT22;9744;49.364;7.484;2023-05-20T06:42:21;16.10;99.90
19220;DHT22;9744;49.364;7.484;2023-05-20T06:45:06;14.90;99.90
19220;DHT22;9744;49.364;7.484;2023-05-20T06:47:55;16.50;99.90
19220;DHT22;9744;49.364;7.484;2023-05-20T06:50:27;15.90;99.90
19220;DHT22;9744;49.364;7.484;2023-05-20T06:52:56;16.70;99.90
19220;DHT22;9744;49.364;7.484;2023-05-20T06:55:27;17.10;99.90
19220;DHT22;9744;49.364;7.484;2023-05-20T06:57:55;15.40;99.90
19220;DHT22;9744;49.364;7.484;2023-05-20T07:03:58;17.50;99.90
19220;DHT22;9744;49.364;7.484;2023-05-20T07:06:25;18.00;99.90
19220;DHT22;9744;49.364;7.484;2023-05-20T07:08:55;18.20;99.90
19220;DHT22;9744;49.364;7.484;2023-05-20T07:11:27;18.50;99.90
19220;DHT22;9744;49.364;7.484;2023-05-20T07:13:55;19.00;99.90
19220;DHT22;9744;49.364;7.484;2023-05-20T07:16:30;19.20;99.90
19220;DHT22;9744;49.364;7.484;2023-05-20T07:19:02;19.40;99.90
19220;DHT22;9744;49.364;7.484;2023-05-20T07:21:41;19.60;99.90
19220;DHT22;9744;49.364;7.484;2023-05-20T07:24:38;17.90;99.90
19220;DHT22;9744;49.364;7.484;2023-05-20T07:27:13;19.60;99.90
19220;DHT22;9744;49.364;7.484;2023-05-20T07:29:45;19.70;99.90
19220;DHT22;9744;49.364;7.484;2023-05-20T07:32:15;19.60;99.90
19220;DHT22;9744;49.364;7.484;2023-05-20T07:34:47;19.60;99.90
19220;DHT22;9744;49.364;7.484;2023-05-20T07:37:15;19.50;99.90
19220;DHT22;9744;49.364;7.484;2023-05-20T07:39:45;19.60;99.90
19220;DHT22;9744;49.364;7.484;2023-05-20T07:42:16;19.60;99.90
19220;DHT22;9744;49.364;7.484;2023-05-20T07:44:56;19.50;99.90
19220;DHT22;9744;49.364;7.484;2023-05-20T07:47:26;19.40;99.90
19220;DHT22;9744;49.364;7.484;2023-05-20T07:49:55;19.20;99.90
19220;DHT22;9744;49.364;7.484;2023-05-20T07:52:23;18.80;99.90
19220;DHT22;9744;49.364;7.484;2023-05-20T07:54:54;19.00;99.90
19220;DHT22;9744;49.364;7.484;2023-05-20T07:57:31;17.90;99.90
19220;DHT22;9744;49.364;7.484;2023-05-20T08:00:03;18.80;99.90
19220;DHT22;9744;49.364;7.484;2023-05-20T08:02:56;18.80;99.90
19220;DHT22;9744;49.364;7.484;2023-05-20T08:05:31;18.70;99.90
19220;DHT22;9744;49.364;7.484;2023-05-20T08:08:00;18.60;99.90
19220;DHT22;9744;49.364;7.484;2023-05-20T08:10:35;18.70;99.90
19220;DHT22;9744;49.364;7.484;2023-05-20T08:13:06;18.60;99.90
19220;DHT22;9744;49.364;7.484;2023-05-20T08:15:38;18.40;99.90
19220;DHT22;9744;49.364;7.484;2023-05-20T08:18:07;18.40;99.90
19220;DHT22;9744;49.364;7.484;2023-05-20T08:20:37;18.40;99.90
19220;DHT22;9744;49.364;7.484;2023-05-20T08:23:08;18.40;99.90
19220;DHT22;9744;49.364;7.484;2023-05-20T08:25:36;18.70;99.90
19220;DHT22;9744;49.364;7.484;2023-05-20T08:28:07;18.60;99.90
19220;DHT22;9744;49.364;7.484;2023-05-20T08:30:37;17.00;99.90
19220;DHT22;9744;49.364;7.484;2023-05-20T08:33:06;19.60;99.90
19220;DHT22;9744;49.364;7.484;2023-05-20T08:35:34;19.30;99.90
19220;DHT22;9744;49.364;7.484;2023-05-20T08:38:04;19.40;99.90
19220;DHT22;9744;49.364;7.484;2023-05-20T08:40:34;19.20;99.90
19220;DHT22;9744;49.364;7.484;2023-05-20T08:46:58;20.40;99.90
19220;DHT22;9744;49.364;7.484;2023-05-20T08:49:28;19.60;99.90
19220;DHT22;9744;49.364;7.484;2023-05-20T08:55:39;19.70;99.90
19220;DHT22;9744;49.364;7.484;2023-05-20T08:58:10;20.00;99.90
19220;DHT22;9744;49.364;7.484;2023-05-20T09:00:42;20.00;99.90
19220;DHT22;9744;49.364;7.484;2023-05-20T09:03:12;20.20;99.90
19220;DHT22;9744;49.364;7.484;2023-05-20T09:05:46;20.40;99.90
19220;DHT22;9744;49.364;7.484;2023-05-20T09:08:15;20.50;99.90
19220;DHT22;9744;49.364;7.484;2023-05-20T09:10:47;20.70;99.90
19220;DHT22;9744;49.364;7.484;2023-05-20T09:13:19;21.20;99.90
19220;DHT22;9744;49.364;7.484;2023-05-20T09:16:05;21.40;99.90
19220;DHT22;9744;49.364;7.484;2023-05-20T09:19:05;21.70;99.90
19220;DHT22;9744;49.364;7.484;2023-05-20T09:21:56;21.50;99.90
19220;DHT22;9744;49.364;7.484;2023-05-20T09:24:52;22.10;99.90
19220;DHT22;9744;49.364;7.484;2023-05-20T09:27:37;22.30;99.90
19220;DHT22;9744;49.364;7.484;2023-05-20T09:39:07;23.00;99.90
19220;DHT22;9744;49.364;7.484;2023-05-20T09:42:00;23.40;99.90
19220;DHT22;9744;49.364;7.484;2023-05-20T09:44:35;23.40;99.90
19220;DHT22;9744;49.364;7.484;2023-05-20T09:51:11;23.70;99.90
19220;DHT22;9744;49.364;7.484;2023-05-20T09:54:52;24.00;99.90
19220;DHT22;9744;49.364;7.484;2023-05-20T09:57:21;24.20;99.90
19220;DHT22;9744;49.364;7.484;2023-05-20T09:59:49;24.40;99.90
19220;DHT22;9744;49.364;7.484;2023-05-20T10:02:17;24.60;99.90
19220;DHT22;9744;49.364;7.484;2023-05-20T10:04:49;24.80;99.90
19220;DHT22;9744;49.364;7.484;2023-05-20T10:07:37;25.00;99.90
19220;DHT22;9744;49.364;7.484;2023-05-20T10:10:18;25.40;99.90
19220;DHT22;9744;49.364;7.484;2023-05-20T10:12:58;25.60;99.90
19220;DHT22;9744;49.364;7.484;2023-05-20T10:15:35;25.70;99.90
19220;DHT22;9744;49.364;7.484;2023-05-20T10:18:13;25.60;99.90
19220;DHT22;9744;49.364;7.484;2023-05-20T10:20:45;25.60;99.90
19220;DHT22;9744;49.364;7.484;2023-05-20T10:23:20;25.80;99.90
19220;DHT22;9744;49.364;7.484;2023-05-20T10:25:54;26.10;99.90
19220;DHT22;9744;49.364;7.484;2023-05-20T10:28:28;26.30;99.90
19220;DHT22;9744;49.364;7.484;2023-05-20T10:30:56;26.30;99.90
19220;DHT22;9744;49.364;7.484;2023-05-20T10:33:25;26.30;99.90
19220;DHT22;9744;49.364;7.484;2023-05-20T10:35:53;26.30;99.90
19220;DHT22;9744;49.364;7.484;2023-05-20T10:38:21;26.40;99.90
19220;DHT22;9744;49.364;7.484;2023-05-20T10:40:48;26.40;99.90
19220;DHT22;9744;49.364;7.484;2023-05-20T10:43:27;26.40;99.90
19220;DHT22;9744;49.364;7.484;2023-05-20T10:45:56;26.50;99.90
19220;DHT22;9744;49.364;7.484;2023-05-20T10:48:26;26.50;99.90
19220;DHT22;9744;49.364;7.484;2023-05-20T10:50:54;26.60;99.90
19220;DHT22;9744;49.364;7.484;2023-05-20T10:53:24;26.70;99.90
19220;DHT22;9744;49.364;7.484;2023-05-20T10:55:53;26.80;99.90
19220;DHT22;9744;49.364;7.484;2023-05-20T10:58:23;27.00;99.90
19220;DHT22;9744;49.364;7.484;2023-05-20T11:00:53;27.10;99.90
19220;DHT22;9744;49.364;7.484;2023-05-20T11:03:21;27.20;99.90
19220;DHT22;9744;49.364;7.484;2023-05-20T11:05:49;27.20;99.90
19220;DHT22;9744;49.364;7.484;2023-05-20T11:08:17;27.30;99.90
19220;DHT22;9744;49.364;7.484;2023-05-20T11:10:44;27.40;99.90
19220;DHT22;9744;49.364;7.484;2023-05-20T11:13:12;27.60;99.90
19220;DHT22;9744;49.364;7.484;2023-05-20T11:15:41;27.80;99.90
19220;DHT22;9744;49.364;7.484;2023-05-20T11:18:10;27.80;99.90
19220;DHT22;9744;49.364;7.484;2023-05-20T11:20:40;27.80;99.90
19220;DHT22;9744;49.364;7.484;2023-05-20T11:23:13;27.90;99.70
19220;DHT22;9744;49.364;7.484;2023-05-20T11:25:41;28.00;99.80
19220;DHT22;9744;49.364;7.484;2023-05-20T11:28:11;28.10;99.90
19220;DHT22;9744;49.364;7.484;2023-05-20T11:30:38;28.30;99.70
19220;DHT22;9744;49.364;7.484;2023-05-20T11:33:11;28.30;99.40
19220;DHT22;9744;49.364;7.484;2023-05-20T11:35:44;28.40;99.70
19220;DHT22;9744;49.364;7.484;2023-05-20T11:38:11;28.40;99.00
19220;DHT22;9744;49.364;7.484;2023-05-20T11:40:42;28.30;99.40
19220;DHT22;9744;49.364;7.484;2023-05-20T11:43:11;28.20;98.90
19220;DHT22;9744;49.364;7.484;2023-05-20T11:45:39;28.10;99.00
19220;DHT22;9744;49.364;7.484;2023-05-20T11:48:09;28.20;98.80
19220;DHT22;9744;49.364;7.484;2023-05-20T11:50:37;28.10;99.00
19220;DHT22;9744;49.364;7.484;2023-05-20T11:53:06;28.10;98.90
19220;DHT22;9744;49.364;7.484;2023-05-20T11:55:43;28.10;99.00
19220;DHT22;9744;49.364;7.484;2023-05-20T11:58:10;28.10;99.30
19220;DHT22;9744;49.364;7.484;2023-05-20T12:00:37;28.10;99.30
19220;DHT22;9744;49.364;7.484;2023-05-20T12:03:04;28.20;99.10
19220;DHT22;9744;49.364;7.484;2023-05-20T12:05:33;28.10;98.70
19220;DHT22;9744;49.364;7.484;2023-05-20T12:08:00;28.00;99.00
19220;DHT22;9744;49.364;7.484;2023-05-20T12:10:28;28.10;99.20
19220;DHT22;9744;49.364;7.484;2023-05-20T12:12:56;28.20;99.20
19220;DHT22;9744;49.364;7.484;2023-05-20T12:15:24;28.20;99.00
19220;DHT22;9744;49.364;7.484;2023-05-20T12:17:52;28.20;98.70
19220;DHT22;9744;49.364;7.484;2023-05-20T12:20:20;28.30;99.00
19220;DHT22;9744;49.364;7.484;2023-05-20T12:22:50;28.30;98.90
19220;DHT22;9744;49.364;7.484;2023-05-20T12:25:18;28.30;98.90
19220;DHT22;9744;49.364;7.484;2023-05-20T12:27:47;28.40;98.90
19220;DHT22;9744;49.364;7.484;2023-05-20T12:30:16;28.50;98.70
19220;DHT22;9744;49.364;7.484;2023-05-20T12:32:44;28.50;98.50
19220;DHT22;9744;49.364;7.484;2023-05-20T12:35:12;28.70;98.60
19220;DHT22;9744;49.364;7.484;2023-05-20T12:37:40;28.80;98.20
19220;DHT22;9744;49.364;7.484;2023-05-20T12:40:11;28.80;98.10
19220;DHT22;9744;49.364;7.484;2023-05-20T12:42:39;28.80;98.20
19220;DHT22;9744;49.364;7.484;2023-05-20T12:45:08;28.80;97.80
19220;DHT22;9744;49.364;7.484;2023-05-20T12:47:35;28.70;97.90
19220;DHT22;9744;49.364;7.484;2023-05-20T12:50:03;28.70;97.90
19220;DHT22;9744;49.364;7.484;2023-05-20T12:52:32;28.70;97.90
19220;DHT22;9744;49.364;7.484;2023-05-20T12:54:59;28.70;98.00
19220;DHT22;9744;49.364;7.484;2023-05-20T12:57:27;28.70;97.90
19220;DHT22;9744;49.364;7.484;2023-05-20T12:59:54;28.80;98.50
19220;DHT22;9744;49.364;7.484;2023-05-20T13:02:22;28.80;98.00
19220;DHT22;9744;49.364;7.484;2023-05-20T13:04:49;28.80;98.40
19220;DHT22;9744;49.364;7.484;2023-05-20T13:07:16;28.80;98.30
19220;DHT22;9744;49.364;7.484;2023-05-20T13:09:43;28.90;98.80
19220;DHT22;9744;49.364;7.484;2023-05-20T13:12:11;29.00;98.80
19220;DHT22;9744;49.364;7.484;2023-05-20T13:14:39;29.10;98.60
19220;DHT22;9744;49.364;7.484;2023-05-20T13:17:07;29.20;98.40
19220;DHT22;9744;49.364;7.484;2023-05-20T13:19:34;29.20;98.00
19220;DHT22;9744;49.364;7.484;2023-05-20T13:22:03;29.10;97.40
19220;DHT22;9744;49.364;7.484;2023-05-20T13:24:30;29.00;97.50
19220;DHT22;9744;49.364;7.484;2023-05-20T13:26:57;28.70;97.50
19220;DHT22;9744;49.364;7.484;2023-05-20T13:29:25;28.60;97.70
19220;DHT22;9744;49.364;7.484;2023-05-20T13:31:54;28.40;97.70
19220;DHT22;9744;49.364;7.484;2023-05-20T13:34:22;28.20;97.90
19220;DHT22;9744;49.364;7.484;2023-05-20T13:36:49;28.00;98.10
19220;DHT22;9744;49.364;7.484;2023-05-20T13:39:16;28.00;98.50
19220;DHT22;9744;49.364;7.484;2023-05-20T13:41:43;27.90;98.20
19220;DHT22;9744;49.364;7.484;2023-05-20T13:44:11;27.90;98.40
19220;DHT22;9744;49.364;7.484;2023-05-20T13:46:38;27.80;98.70
19220;DHT22;9744;49.364;7.484;2023-05-20T13:49:06;27.80;99.00
19220;DHT22;9744;49.364;7.484;2023-05-20T13:51:34;28.00;99.20
19220;DHT22;9744;49.364;7.484;2023-05-20T13:54:01;28.00;98.60
19220;DHT22;9744;49.364;7.484;2023-05-20T13:56:28;28.10;98.80
19220;DHT22;9744;49.364;7.484;2023-05-20T13:58:56;28.30;98.80
19220;DHT22;9744;49.364;7.484;2023-05-20T14:01:23;28.30;98.50
19220;DHT22;9744;49.364;7.484;2023-05-20T14:03:50;28.30;98.70
19220;DHT22;9744;49.364;7.484;2023-05-20T14:06:19;28.30;98.60
19220;DHT22;9744;49.364;7.484;2023-05-20T14:08:46;28.20;98.50
19220;DHT22;9744;49.364;7.484;2023-05-20T14:11:13;28.00;98.10
19220;DHT22;9744;49.364;7.484;2023-05-20T14:13:41;27.90;98.80
19220;DHT22;9744;49.364;7.484;2023-05-20T14:16:09;28.00;98.90
19220;DHT22;9744;49.364;7.484;2023-05-20T14:18:36;28.00;98.70
19220;DHT22;9744;49.364;7.484;2023-05-20T14:21:04;28.20;98.90
19220;DHT22;9744;49.364;7.484;2023-05-20T14:23:33;28.30;98.50
19220;DHT22;9744;49.364;7.484;2023-05-20T14:26:00;28.30;98.00
19220;DHT22;9744;49.364;7.484;2023-05-20T14:28:27;28.30;98.30
19220;DHT22;9744;49.364;7.484;2023-05-20T14:30:54;28.20;97.90
19220;DHT22;9744;49.364;7.484;2023-05-20T14:33:21;28.20;98.00
19220;DHT22;9744;49.364;7.484;2023-05-20T14:35:48;28.10;98.10
19220;DHT22;9744;49.364;7.484;2023-05-20T14:38:16;28.00;98.30
19220;DHT22;9744;49.364;7.484;2023-05-20T14:40:46;28.00;98.40
19220;DHT22;9744;49.364;7.484;2023-05-20T14:43:13;27.80;97.90
19220;DHT22;9744;49.364;7.484;2023-05-20T14:45:40;27.70;98.50
19220;DHT22;9744;49.364;7.484;2023-05-20T14:48:07;27.50;98.20
19220;DHT22;9744;49.364;7.484;2023-05-20T14:50:35;27.40;98.40
19220;DHT22;9744;49.364;7.484;2023-05-20T14:53:02;27.20;98.50
19220;DHT22;9744;49.364;7.484;2023-05-20T14:55:30;27.20;98.60
19220;DHT22;9744;49.364;7.484;2023-05-20T14:57:58;27.00;98.60
19220;DHT22;9744;49.364;7.484;2023-05-20T15:00:26;26.90;98.80
19220;DHT22;9744;49.364;7.484;2023-05-20T15:02:53;26.90;98.70
19220;DHT22;9744;49.364;7.484;2023-05-20T15:05:20;26.80;99.10
19220;DHT22;9744;49.364;7.484;2023-05-20T15:07:47;26.70;98.60
19220;DHT22;9744;49.364;7.484;2023-05-20T15:10:14;26.70;98.70
19220;DHT22;9744;49.364;7.484;2023-05-20T15:12:42;26.60;98.90
19220;DHT22;9744;49.364;7.484;2023-05-20T15:15:11;26.60;98.60
19220;DHT22;9744;49.364;7.484;2023-05-20T15:17:38;26.50;99.10
19220;DHT22;9744;49.364;7.484;2023-05-20T15:20:07;26.70;98.80
19220;DHT22;9744;49.364;7.484;2023-05-20T15:22:34;26.80;99.00
19220;DHT22;9744;49.364;7.484;2023-05-20T15:25:01;27.10;99.10
19220;DHT22;9744;49.364;7.484;2023-05-20T15:27:29;27.30;98.70
19220;DHT22;9744;49.364;7.484;2023-05-20T15:29:56;27.20;98.70
19220;DHT22;9744;49.364;7.484;2023-05-20T15:32:24;27.20;98.70
19220;DHT22;9744;49.364;7.484;2023-05-20T15:34:51;27.10;98.80
19220;DHT22;9744;49.364;7.484;2023-05-20T15:37:19;27.10;99.10
19220;DHT22;9744;49.364;7.484;2023-05-20T15:39:46;27.10;99.10
19220;DHT22;9744;49.364;7.484;2023-05-20T15:42:13;27.20;99.00
19220;DHT22;9744;49.364;7.484;2023-05-20T15:44:43;27.20;99.10
19220;DHT22;9744;49.364;7.484;2023-05-20T15:47:10;27.30;98.80
19220;DHT22;9744;49.364;7.484;2023-05-20T15:49:39;27.40;99.00
19220;DHT22;9744;49.364;7.484;2023-05-20T15:52:06;27.30;98.70
19220;DHT22;9744;49.364;7.484;2023-05-20T15:54:33;27.30;98.90
19220;DHT22;9744;49.364;7.484;2023-05-20T15:57:00;27.30;98.80
19220;DHT22;9744;49.364;7.484;2023-05-20T15:59:28;27.20;98.50
19220;DHT22;9744;49.364;7.484;2023-05-20T16:01:55;27.00;98.70
19220;DHT22;9744;49.364;7.484;2023-05-20T16:04:22;26.90;98.70
19220;DHT22;9744;49.364;7.484;2023-05-20T16:06:51;26.70;98.60
19220;DHT22;9744;49.364;7.484;2023-05-20T16:09:18;26.60;98.70
19220;DHT22;9744;49.364;7.484;2023-05-20T16:11:45;26.40;99.00
19220;DHT22;9744;49.364;7.484;2023-05-20T16:14:13;26.40;99.10
19220;DHT22;9744;49.364;7.484;2023-05-20T16:16:40;26.40;99.10
19220;DHT22;9744;49.364;7.484;2023-05-20T16:19:07;26.50;99.30
19220;DHT22;9744;49.364;7.484;2023-05-20T16:21:34;26.60;99.40
19220;DHT22;9744;49.364;7.484;2023-05-20T16:24:04;26.70;99.30
19220;DHT22;9744;49.364;7.484;2023-05-20T16:26:31;26.80;99.30
19220;DHT22;9744;49.364;7.484;2023-05-20T16:28:58;26.90;99.20
19220;DHT22;9744;49.364;7.484;2023-05-20T16:31:25;27.10;99.20
19220;DHT22;9744;49.364;7.484;2023-05-20T16:33:53;27.10;98.90
19220;DHT22;9744;49.364;7.484;2023-05-20T16:36:21;27.10;99.10
19220;DHT22;9744;49.364;7.484;2023-05-20T16:38:48;27.00;98.80
19220;DHT22;9744;49.364;7.484;2023-05-20T16:41:16;26.90;98.70
19220;DHT22;9744;49.364;7.484;2023-05-20T16:43:44;26.90;98.60
19220;DHT22;9744;49.364;7.484;2023-05-20T16:46:11;26.80;98.90
19220;DHT22;9744;49.364;7.484;2023-05-20T16:48:39;26.70;98.80
19220;DHT22;9744;49.364;7.484;2023-05-20T16:51:06;26.60;98.80
19220;DHT22;9744;49.364;7.484;2023-05-20T16:53:33;26.60;98.80
19220;DHT22;9744;49.364;7.484;2023-05-20T16:56:00;26.40;98.80
19220;DHT22;9744;49.364;7.484;2023-05-20T16:58:29;26.20;98.90
19220;DHT22;9744;49.364;7.484;2023-05-20T17:00:56;26.00;99.00
19220;DHT22;9744;49.364;7.484;2023-05-20T17:03:23;25.90;98.80
19220;DHT22;9744;49.364;7.484;2023-05-20T17:05:50;25.70;98.90
19220;DHT22;9744;49.364;7.484;2023-05-20T17:08:18;25.60;99.10
19220;DHT22;9744;49.364;7.484;2023-05-20T17:10:45;25.30;99.10
19220;DHT22;9744;49.364;7.484;2023-05-20T17:13:14;25.10;99.40
19220;DHT22;9744;49.364;7.484;2023-05-20T17:15:43;24.90;99.40
19220;DHT22;9744;49.364;7.484;2023-05-20T17:18:10;24.70;99.50
19220;DHT22;9744;49.364;7.484;2023-05-20T17:20:37;24.50;99.80
19220;DHT22;9744;49.364;7.484;2023-05-20T17:23:04;24.40;99.90
19220;DHT22;9744;49.364;7.484;2023-05-20T17:25:31;24.30;99.80